createdAt,value
2019-05-16T00:00:49.441Z,9.44
2019-05-16T00:03:18.715Z,9.37
2019-05-16T00:06:08.757Z,9.24
2019-05-16T00:08:38.788Z,9.37
2019-05-16T00:11:08.589Z,9.37
2019-05-16T00:13:38.396Z,9.42
2019-05-16T00:16:07.967Z,9.49
2019-05-16T00:19:38.309Z,9.35
2019-05-16T00:22:11.668Z,9.34
2019-05-16T00:24:45.838Z,9.31
2019-05-16T00:27:18.588Z,9.46
2019-05-16T00:29:48.754Z,9.37
2019-05-16T00:32:30.000Z,9.36
2019-05-16T00:34:58.804Z,9.52
2019-05-16T00:38:20.048Z,9.20
2019-05-16T00:40:53.549Z,9.08
2019-05-16T00:43:24.352Z,8.99
2019-05-16T00:45:53.246Z,9.14
2019-05-16T00:48:34.589Z,9.24
2019-05-16T00:51:12.647Z,9.08
2019-05-16T00:53:41.790Z,9.23
2019-05-16T00:56:11.039Z,9.20
2019-05-16T00:58:40.515Z,9.15
2019-05-16T01:01:10.240Z,9.26
2019-05-16T01:03:39.238Z,9.22
2019-05-16T01:06:16.659Z,9.39
2019-05-16T01:08:38.770Z,9.38
2019-05-16T01:11:08.015Z,9.44
2019-05-16T01:13:38.131Z,9.23
2019-05-16T01:16:08.586Z,9.27
2019-05-16T01:18:55.182Z,9.36
2019-05-16T01:21:39.259Z,9.38
2019-05-16T01:24:08.202Z,9.25
2019-05-16T01:26:39.207Z,9.20
2019-05-16T01:29:08.555Z,9.08
2019-05-16T01:31:38.428Z,9.36
2019-05-16T01:34:07.821Z,9.30
2019-05-16T01:37:14.831Z,9.29
2019-05-16T01:39:43.765Z,9.40
2019-05-16T01:42:12.637Z,9.24
2019-05-16T01:44:41.592Z,9.41
2019-05-16T01:47:10.488Z,9.33
2019-05-16T01:49:39.637Z,9.35
2019-05-16T01:52:08.683Z,9.33
2019-05-16T01:55:14.903Z,9.28
2019-05-16T01:57:43.868Z,9.40
2019-05-16T02:00:13.329Z,9.27
2019-05-16T02:02:45.094Z,9.35
2019-05-16T02:05:14.005Z,9.38
2019-05-16T02:07:55.568Z,9.33
2019-05-16T02:10:24.516Z,9.38
2019-05-16T02:12:53.438Z,9.19
2019-05-16T02:15:25.745Z,9.37
2019-05-16T02:17:54.709Z,9.30
2019-05-16T02:20:23.547Z,9.10
2019-05-16T02:22:53.840Z,9.43
2019-05-16T02:25:34.054Z,9.39
2019-05-16T02:28:02.907Z,9.41
2019-05-16T02:30:31.913Z,9.53
2019-05-16T02:33:11.542Z,9.32
2019-05-16T02:35:40.690Z,9.36
2019-05-16T02:38:33.567Z,9.27
2019-05-16T02:41:03.510Z,9.40
2019-05-16T02:43:32.324Z,9.37
2019-05-16T02:46:01.674Z,9.28
2019-05-16T02:48:51.587Z,9.35
2019-05-16T02:51:31.496Z,9.31
2019-05-16T02:54:01.365Z,9.46
2019-05-16T02:56:31.714Z,9.29
2019-05-16T02:59:01.688Z,9.43
2019-05-16T03:02:31.021Z,9.29
2019-05-16T03:05:00.650Z,9.35
2019-05-16T03:07:41.154Z,9.57
2019-05-16T03:10:02.255Z,9.30
2019-05-16T03:12:52.228Z,9.53
2019-05-16T03:15:21.917Z,9.51
2019-05-16T03:18:03.851Z,9.36
2019-05-16T03:20:33.808Z,9.48
2019-05-16T03:23:02.688Z,9.22
2019-05-16T03:25:31.672Z,9.27
2019-05-16T03:28:01.951Z,9.32
2019-05-16T03:31:05.277Z,9.29
2019-05-16T03:33:48.296Z,9.33
2019-05-16T03:36:04.990Z,9.20
2019-05-16T03:38:34.010Z,9.20
2019-05-16T03:41:02.842Z,9.42
2019-05-16T03:43:31.628Z,9.24
2019-05-16T03:46:02.510Z,9.32
2019-05-16T03:48:51.993Z,9.29
2019-05-16T03:51:21.531Z,9.36
2019-05-16T03:53:50.987Z,9.24
2019-05-16T03:56:21.868Z,9.26
2019-05-16T03:58:51.098Z,9.42
2019-05-16T04:01:23.408Z,9.38
2019-05-16T04:03:52.323Z,9.58
2019-05-16T04:06:22.134Z,9.20
2019-05-16T04:08:51.323Z,9.29
2019-05-16T04:11:42.108Z,9.31
2019-05-16T04:14:24.971Z,9.42
2019-05-16T04:17:01.734Z,9.35
2019-05-16T04:19:52.119Z,9.38
2019-05-16T04:22:21.950Z,9.45
2019-05-16T04:25:01.977Z,9.47
2019-05-16T04:27:31.205Z,9.57
2019-05-16T04:30:01.488Z,9.69
2019-05-16T04:32:31.558Z,9.39
2019-05-16T04:35:02.474Z,9.61
2019-05-16T04:37:33.609Z,9.64
2019-05-16T04:40:02.470Z,9.58
2019-05-16T04:43:31.869Z,9.65
2019-05-16T04:46:01.354Z,9.58
2019-05-16T04:48:52.546Z,9.48
2019-05-16T04:51:22.108Z,9.61
2019-05-16T04:53:51.195Z,9.54
2019-05-16T04:56:21.728Z,9.57
2019-05-16T04:58:53.355Z,9.56
2019-05-16T05:01:24.065Z,9.53
2019-05-16T05:04:06.202Z,9.61
2019-05-16T05:06:23.459Z,9.64
2019-05-16T05:08:58.420Z,9.74
2019-05-16T05:11:30.489Z,9.64
2019-05-16T05:14:00.785Z,9.74
2019-05-16T05:16:30.593Z,9.78
2019-05-16T05:19:02.293Z,9.80
2019-05-16T05:21:31.517Z,10.00
2019-05-16T05:24:11.014Z,10.06
2019-05-16T05:27:06.717Z,9.98
2019-05-16T05:29:35.584Z,10.15
2019-05-16T05:32:05.518Z,10.22
2019-05-16T05:35:07.516Z,10.36
2019-05-16T05:37:36.507Z,10.29
2019-05-16T05:40:22.500Z,10.38
2019-05-16T05:43:10.626Z,10.43
2019-05-16T05:45:40.503Z,10.25
2019-05-16T05:52:30.363Z,10.27
2019-05-16T05:55:00.864Z,10.29
2019-05-16T05:57:34.091Z,10.34
2019-05-16T06:00:16.689Z,10.55
2019-05-16T06:02:45.651Z,10.58
2019-05-16T06:06:12.138Z,10.57
2019-05-16T06:08:41.148Z,10.46
2019-05-16T06:11:11.357Z,10.52
2019-05-16T06:14:50.826Z,10.43
2019-05-16T07:06:48.465Z,10.99
2019-05-16T07:09:00.879Z,11.03
2019-05-16T07:11:30.680Z,11.08
2019-05-16T07:14:00.599Z,11.12
2019-05-16T07:16:29.952Z,11.23
2019-05-16T07:19:03.422Z,11.22
2019-05-16T07:21:32.218Z,11.37
2019-05-16T07:24:01.011Z,11.49
2019-05-16T07:26:31.026Z,11.31
2019-05-16T07:29:00.418Z,11.34
2019-05-16T07:31:30.043Z,11.28
2019-05-16T07:34:00.826Z,11.29
2019-05-16T07:36:31.487Z,11.10
2019-05-16T07:39:00.443Z,11.04
2019-05-16T07:41:31.036Z,11.00
2019-05-16T07:44:00.951Z,10.86
2019-05-16T07:46:31.554Z,10.75
2019-05-16T07:49:01.369Z,10.65
2019-05-16T07:51:31.161Z,10.87
2019-05-16T07:54:00.143Z,10.86
2019-05-16T07:56:30.926Z,10.76
2019-05-16T07:59:00.891Z,10.74
2019-05-16T08:01:30.658Z,10.70
2019-05-16T08:04:00.187Z,10.70
2019-05-16T08:06:30.950Z,10.68
2019-05-16T08:09:00.199Z,10.74
2019-05-16T08:11:30.433Z,10.39
2019-05-16T08:14:00.995Z,10.45
2019-05-16T08:16:30.753Z,10.32
2019-05-16T08:19:00.889Z,10.32
2019-05-16T08:21:30.840Z,10.52
2019-05-16T08:24:07.291Z,10.52
2019-05-16T08:26:32.922Z,10.45
2019-05-16T08:29:02.302Z,10.58
2019-05-16T08:31:32.079Z,10.60
2019-05-16T08:34:01.148Z,10.64
2019-05-16T08:36:31.224Z,10.55
2019-05-16T08:39:01.221Z,10.55
2019-05-16T08:44:01.337Z,10.68
2019-05-16T08:46:32.280Z,10.64
2019-05-16T08:49:01.322Z,10.56
2019-05-16T09:07:02.287Z,10.35
2019-05-16T09:09:42.296Z,10.39
2019-05-16T09:10:14.343Z,10.52
2019-05-16T09:10:34.934Z,10.65
2019-05-16T09:10:38.941Z,10.55
2019-05-16T09:12:01.527Z,10.46
2019-05-16T09:14:35.221Z,10.61
2019-05-16T09:17:01.053Z,10.58
2019-05-16T09:19:30.149Z,10.68
2019-05-16T09:21:58.947Z,10.58
2019-05-16T09:24:28.054Z,10.75
2019-05-16T09:26:57.989Z,10.77
2019-05-16T09:29:27.590Z,10.95
2019-05-16T09:32:09.112Z,11.02
2019-05-16T09:34:34.773Z,11.05
2019-05-16T09:37:00.743Z,11.01
2019-05-16T09:39:28.376Z,11.13
2019-05-16T09:41:58.686Z,11.20
2019-05-16T09:44:27.763Z,11.36
2019-05-16T09:46:57.114Z,11.38
2019-05-16T09:49:26.506Z,11.38
2019-05-16T09:51:58.071Z,11.32
2019-05-16T09:54:27.493Z,11.23
2019-05-16T09:56:57.143Z,11.22
2019-05-16T09:59:26.453Z,11.03
2019-05-16T10:01:57.177Z,11.15
2019-05-16T10:04:26.850Z,11.31
2019-05-16T10:06:57.546Z,11.34
2019-05-16T10:09:41.222Z,11.30
2019-05-16T10:12:14.153Z,11.58
2019-05-16T10:14:31.993Z,11.53
2019-05-16T10:17:00.916Z,11.60
2019-05-16T10:19:29.814Z,11.35
2019-05-16T10:22:00.301Z,11.35
2019-05-16T10:24:29.365Z,11.03
2019-05-16T10:26:58.207Z,11.02
2019-05-16T10:29:27.600Z,10.98
2019-05-16T10:31:56.944Z,10.72
2019-05-16T10:34:27.011Z,10.42
2019-05-16T10:36:59.669Z,10.56
2019-05-16T10:39:28.633Z,10.35
2019-05-16T10:41:57.578Z,10.30
2019-05-16T10:44:28.132Z,10.17
2019-05-16T10:46:57.604Z,9.97
2019-05-16T10:49:36.769Z,9.86
2019-05-16T10:51:57.740Z,9.94
2019-05-16T10:54:27.539Z,9.91
2019-05-16T10:56:57.629Z,9.90
2019-05-16T10:59:54.654Z,10.04
2019-05-16T11:01:59.710Z,9.84
2019-05-16T11:04:37.575Z,9.81
2019-05-16T11:06:58.554Z,9.79
2019-05-16T11:09:27.533Z,9.66
2019-05-16T11:12:13.204Z,9.65
2019-05-16T11:14:42.062Z,9.52
2019-05-16T11:17:13.115Z,9.70
2019-05-16T11:19:41.537Z,9.51
2019-05-16T11:22:10.551Z,9.58
2019-05-16T11:24:39.553Z,9.62
2019-05-16T11:27:08.424Z,9.68
2019-05-16T11:29:37.511Z,9.67
2019-05-16T11:32:07.113Z,9.71
2019-05-16T11:34:37.660Z,9.70
2019-05-16T11:37:07.123Z,9.67
2019-05-16T11:39:37.142Z,9.63
2019-05-16T11:42:08.040Z,9.75
2019-05-16T11:44:38.128Z,9.96
2019-05-16T11:47:08.215Z,9.97
2019-05-16T11:49:38.188Z,10.00
2019-05-16T11:52:10.247Z,10.05
2019-05-16T11:54:39.068Z,10.23
2019-05-16T11:57:08.075Z,10.30
2019-05-16T11:59:37.497Z,10.17
2019-05-16T12:02:06.637Z,10.15
2019-05-16T12:04:37.569Z,10.17
2019-05-16T12:07:19.083Z,10.10
2019-05-16T12:09:47.102Z,9.97
2019-05-16T12:12:08.813Z,9.94
2019-05-16T12:14:40.398Z,9.79
2019-05-16T12:17:10.609Z,9.77
2019-05-16T12:25:27.351Z,9.99
2019-05-16T12:27:57.004Z,9.99
2019-05-16T12:30:26.222Z,9.75
2019-05-16T12:33:07.286Z,9.87
2019-05-16T12:37:51.916Z,9.87
2019-05-16T13:16:02.790Z,9.87
2019-05-16T13:18:31.679Z,9.87
2019-05-16T13:21:00.755Z,11.37
2019-05-16T13:23:29.956Z,11.70
2019-05-16T13:25:58.822Z,11.84
2019-05-16T13:28:27.798Z,11.93
2019-05-16T13:30:57.757Z,12.21
2019-05-16T13:33:27.252Z,12.44
2019-05-16T13:35:57.839Z,12.62
2019-05-16T13:38:27.935Z,12.66
2019-05-16T13:40:57.209Z,12.75
2019-05-16T13:43:26.926Z,12.52
2019-05-16T13:45:57.545Z,12.42
2019-05-16T13:48:26.884Z,12.38
2019-05-16T13:51:08.426Z,12.34
2019-05-16T13:53:27.127Z,12.29
2019-05-16T13:55:56.145Z,12.27
2019-05-16T13:58:28.080Z,12.20
2019-05-16T14:00:57.178Z,12.22
2019-05-16T14:03:27.665Z,12.15
2019-05-16T14:05:58.236Z,12.05
2019-05-16T14:08:27.471Z,11.91
2019-05-16T14:11:01.526Z,11.84
2019-05-16T14:13:27.870Z,11.82
2019-05-16T14:15:57.082Z,11.75
2019-05-16T14:18:27.259Z,11.82
2019-05-16T14:20:57.319Z,11.84
2019-05-16T14:23:28.346Z,11.79
2019-05-16T14:26:07.116Z,11.76
2019-05-16T14:28:37.476Z,11.75
2019-05-16T14:31:07.124Z,11.73
2019-05-16T14:33:36.759Z,11.69
2019-05-16T14:36:07.368Z,11.69
2019-05-16T14:38:37.360Z,11.60
2019-05-16T14:41:08.032Z,11.66
2019-05-16T14:43:37.293Z,11.61
2019-05-16T14:46:09.407Z,11.65
2019-05-16T14:48:37.181Z,11.65
2019-05-16T14:51:18.339Z,11.69
2019-05-16T14:53:47.273Z,11.68
2019-05-16T14:56:16.085Z,11.70
2019-05-16T14:58:48.176Z,11.76
2019-05-16T15:01:17.610Z,11.90
2019-05-16T15:03:47.324Z,11.90
2019-05-16T15:06:18.285Z,11.99
2019-05-16T15:08:47.946Z,11.93
2019-05-16T15:11:17.982Z,12.03
2019-05-16T15:13:47.067Z,12.05
2019-05-16T15:16:16.906Z,12.07
2019-05-16T15:18:47.421Z,12.20
2019-05-16T15:21:17.579Z,12.29
2019-05-16T15:23:46.574Z,12.31
2019-05-16T15:26:18.150Z,12.26
2019-05-16T15:28:47.993Z,12.31
2019-05-16T15:31:16.966Z,12.40
2019-05-16T15:33:47.613Z,12.39
2019-05-16T15:36:20.233Z,12.74
2019-05-16T15:38:49.160Z,12.67
2019-05-16T15:41:17.966Z,12.63
2019-05-16T15:43:46.803Z,12.41
2019-05-16T15:46:17.362Z,12.39
2019-05-16T15:48:48.816Z,12.34
2019-05-16T15:51:21.014Z,12.31
2019-05-16T15:53:48.341Z,12.15
2019-05-16T15:56:17.922Z,12.13
2019-05-16T15:58:46.815Z,11.88
2019-05-16T16:01:18.456Z,11.83
2019-05-16T16:03:47.265Z,11.81
2019-05-16T16:06:17.783Z,11.63
2019-05-16T16:08:47.479Z,11.60
2019-05-16T16:11:17.307Z,11.46
2019-05-16T16:13:48.496Z,11.35
2019-05-16T16:16:17.467Z,11.27
2019-05-16T16:18:46.904Z,11.36
2019-05-16T16:21:16.713Z,11.30
2019-05-16T16:23:47.381Z,11.19
2019-05-16T16:26:17.747Z,11.06
2019-05-16T16:28:46.845Z,11.11
2019-05-16T16:31:16.812Z,11.00
2019-05-16T16:33:45.741Z,10.98
2019-05-16T16:36:16.935Z,10.99
2019-05-16T16:38:47.622Z,10.99
2019-05-16T16:41:15.909Z,10.94
2019-05-16T16:43:47.494Z,10.96
2019-05-16T16:46:16.808Z,10.88
2019-05-16T16:48:45.665Z,10.97
2019-05-16T16:51:17.367Z,10.89
2019-05-16T16:53:46.879Z,10.93
2019-05-16T16:56:16.834Z,10.89
2019-05-16T16:58:46.528Z,10.93
2019-05-16T17:01:17.407Z,10.86
2019-05-16T17:03:47.095Z,10.82
2019-05-16T17:06:17.751Z,10.78
2019-05-16T17:08:47.458Z,10.77
2019-05-16T17:11:16.500Z,10.83
2019-05-16T17:13:47.204Z,10.82
2019-05-16T17:16:25.309Z,10.84
2019-05-16T17:18:47.538Z,10.90
2019-05-16T17:21:17.082Z,10.83
2019-05-16T17:23:46.537Z,10.81
2019-05-16T17:26:15.434Z,10.82
2019-05-16T17:28:46.555Z,10.74
2019-05-16T17:31:16.753Z,10.75
2019-05-16T17:33:45.385Z,10.74
2019-05-16T17:36:14.581Z,10.76
2019-05-16T17:38:43.364Z,10.84
2019-05-16T17:41:12.153Z,10.70
2019-05-16T17:43:40.965Z,10.72
2019-05-16T17:46:09.755Z,10.77
2019-05-16T17:48:38.561Z,10.75
2019-05-16T17:51:07.411Z,10.79
2019-05-16T17:53:37.496Z,10.71
2019-05-16T17:56:07.086Z,10.66
2019-05-16T17:58:35.952Z,10.75
2019-05-16T18:01:06.896Z,10.75
2019-05-16T18:03:37.228Z,10.69
2019-05-16T18:06:06.423Z,10.58
2019-05-16T18:08:37.588Z,10.67
2019-05-16T18:11:07.142Z,10.71
2019-05-16T18:13:37.122Z,10.72
2019-05-16T18:16:07.459Z,10.60
2019-05-16T18:18:37.506Z,10.70
2019-05-16T18:21:07.098Z,10.65
2019-05-16T18:23:36.941Z,10.64
2019-05-16T18:26:07.759Z,10.64
2019-05-16T18:28:38.572Z,10.56
2019-05-16T18:31:07.442Z,10.58
2019-05-16T18:33:37.090Z,10.59
2019-05-16T18:36:07.753Z,10.52
2019-05-16T18:38:37.300Z,10.52
2019-05-16T18:41:07.822Z,10.44
2019-05-16T18:43:36.758Z,10.44
2019-05-16T18:46:07.211Z,10.37
2019-05-16T18:48:36.721Z,10.44
2019-05-16T18:51:06.630Z,10.40
2019-05-16T18:53:37.507Z,10.31
2019-05-16T18:56:07.780Z,10.23
2019-05-16T18:58:37.233Z,10.23
2019-05-16T19:01:06.657Z,10.22
2019-05-16T19:03:35.600Z,10.20
2019-05-16T19:06:04.496Z,10.15
2019-05-16T19:08:33.310Z,10.14
2019-05-16T19:11:02.228Z,10.05
2019-05-16T19:13:31.323Z,10.09
2019-05-16T19:16:00.119Z,10.02
2019-05-16T19:18:30.022Z,10.03
2019-05-16T19:20:58.999Z,10.02
2019-05-16T19:23:27.791Z,10.09
2019-05-16T19:25:57.095Z,10.09
2019-05-16T19:28:28.310Z,10.03
2019-05-16T19:30:57.332Z,9.96
2019-05-16T19:33:26.252Z,9.99
2019-05-16T19:35:56.452Z,9.93
2019-05-16T19:38:28.954Z,9.91
2019-05-16T19:40:57.479Z,9.94
2019-05-16T19:43:26.709Z,9.91
2019-05-16T19:45:57.227Z,9.98
2019-05-16T19:48:26.789Z,9.90
2019-05-16T19:50:56.949Z,9.91
2019-05-16T19:53:27.097Z,9.95
2019-05-16T19:55:56.704Z,10.00
2019-05-16T19:58:26.638Z,9.97
2019-05-16T20:00:57.211Z,9.92
2019-05-16T20:03:27.249Z,9.89
2019-05-16T20:05:56.963Z,9.96
2019-05-16T20:08:26.940Z,9.92
2019-05-16T20:10:55.940Z,9.93
2019-05-16T20:13:27.226Z,9.95
2019-05-16T20:15:56.494Z,9.99
2019-05-16T20:18:27.337Z,9.89
2019-05-16T20:20:56.825Z,9.90
2019-05-16T20:23:27.702Z,9.98
2019-05-16T20:25:57.121Z,9.91
2019-05-16T20:28:26.651Z,9.94
2019-05-16T20:30:59.521Z,9.99
2019-05-16T20:33:27.434Z,10.02
2019-05-16T20:35:57.501Z,9.92
2019-05-16T20:38:26.853Z,9.95
2019-05-16T20:40:56.926Z,9.92
2019-05-16T20:43:26.439Z,9.96
2019-05-16T20:45:56.788Z,9.93
2019-05-16T20:48:26.549Z,9.87
2019-05-16T20:50:56.784Z,9.90
2019-05-16T20:53:27.131Z,9.89
2019-05-16T20:55:57.342Z,9.89
2019-05-16T20:58:26.257Z,9.89
2019-05-16T21:00:59.591Z,9.90
2019-05-16T21:03:27.082Z,9.91
2019-05-16T21:05:58.174Z,9.85
2019-05-16T21:08:26.741Z,9.92
2019-05-16T21:10:57.015Z,9.86
2019-05-16T21:13:25.939Z,9.87
2019-05-16T21:15:54.751Z,9.90
2019-05-16T21:18:23.915Z,9.91
2019-05-16T21:20:52.681Z,9.90
2019-05-16T21:23:21.468Z,9.87
2019-05-16T21:25:50.258Z,9.83
2019-05-16T21:28:19.866Z,9.88
2019-05-16T21:30:48.920Z,9.91
2019-05-16T21:33:18.624Z,9.86
2019-05-16T21:35:47.637Z,9.88
2019-05-16T21:38:16.731Z,9.76
2019-05-16T21:40:45.657Z,9.89
2019-05-16T21:43:16.691Z,9.89
2019-05-16T21:45:47.255Z,9.93
2019-05-16T21:48:16.308Z,9.91
2019-05-16T21:50:46.434Z,9.91
2019-05-16T21:53:17.567Z,9.91
2019-05-16T21:55:47.209Z,9.97
2019-05-16T21:58:16.218Z,9.93
2019-05-16T22:00:47.438Z,9.89
2019-05-16T22:03:16.587Z,10.00
2019-05-16T22:05:46.478Z,9.97
2019-05-16T22:08:16.771Z,9.96
2019-05-16T22:10:46.755Z,9.98
2019-05-16T22:13:15.789Z,9.85
2019-05-16T22:15:46.434Z,9.95
2019-05-16T22:18:16.542Z,9.91
2019-05-16T22:20:48.884Z,9.88
2019-05-16T22:23:17.305Z,9.93
2019-05-16T22:25:47.095Z,9.97
2019-05-16T22:28:20.167Z,9.94
2019-05-16T22:30:49.807Z,9.94
2019-05-16T22:33:18.803Z,9.89
2019-05-16T22:35:49.756Z,9.89
2019-05-16T22:38:19.250Z,9.91
2019-05-16T22:40:49.368Z,9.84
2019-05-16T22:43:18.595Z,9.87
2019-05-16T22:45:52.129Z,9.89
2019-05-16T22:48:21.010Z,9.86
2019-05-16T22:53:54.013Z,9.80
2019-05-16T22:56:22.885Z,9.87
2019-05-16T22:58:51.852Z,9.77
2019-05-16T23:01:20.821Z,9.80
2019-05-16T23:03:49.710Z,9.74
2019-05-16T23:06:19.709Z,9.74
2019-05-16T23:09:03.796Z,9.68
2019-05-16T23:11:32.624Z,9.74
2019-05-16T23:14:01.712Z,9.67
2019-05-16T23:20:32.786Z,9.70
2019-05-16T23:23:38.529Z,9.64
2019-05-16T23:26:31.724Z,9.62
2019-05-16T23:29:00.849Z,9.60
2019-05-16T23:32:20.281Z,9.53
2019-05-16T23:34:49.446Z,9.63
2019-05-16T23:44:26.602Z,9.67
2019-05-16T23:46:56.328Z,9.69
2019-05-16T23:49:27.376Z,9.67
2019-05-16T23:51:57.109Z,9.66
2019-05-16T23:54:31.700Z,9.62
2019-05-16T23:57:00.649Z,9.64
2019-05-16T23:59:29.487Z,9.62
